sensor_id;sensor_type;location;lat;lon;timestamp;P1;durP1;ratioP1;P2;durP2;ratioP2
16579;SDS011;8402;51.466;6.806;2023-04-25T00:00:42;10.10;;;3.70;;
16579;SDS011;8402;51.466;6.806;2023-04-25T00:03:12;13.70;;;4.20;;
16579;SDS011;8402;51.466;6.806;2023-04-25T00:05:45;16.47;;;4.00;;
16579;SDS011;8402;51.466;6.806;2023-04-25T00:08:15;11.33;;;4.23;;
16579;SDS011;8402;51.466;6.806;2023-04-25T00:10:45;12.87;;;3.63;;
16579;SDS011;8402;51.466;6.806;2023-04-25T00:13:15;12.70;;;4.00;;
16579;SDS011;8402;51.466;6.806;2023-04-25T00:15:45;16.87;;;4.07;;
16579;SDS011;8402;51.466;6.806;2023-04-25T00:18:15;21.17;;;4.47;;
16579;SDS011;8402;51.466;6.806;2023-04-25T00:20:48;11.77;;;4.33;;
16579;SDS011;8402;51.466;6.806;2023-04-25T00:23:18;17.27;;;4.20;;
16579;SDS011;8402;51.466;6.806;2023-04-25T00:25:48;16.37;;;4.40;;
16579;SDS011;8402;51.466;6.806;2023-04-25T00:28:19;10.90;;;3.57;;
16579;SDS011;8402;51.466;6.806;2023-04-25T00:30:49;14.77;;;3.60;;
16579;SDS011;8402;51.466;6.806;2023-04-25T00:33:19;11.40;;;3.60;;
16579;SDS011;8402;51.466;6.806;2023-04-25T00:35:52;11.67;;;3.23;;
16579;SDS011;8402;51.466;6.806;2023-04-25T00:38:22;9.83;;;3.60;;
16579;SDS011;8402;51.466;6.806;2023-04-25T00:40:52;8.97;;;3.23;;
16579;SDS011;8402;51.466;6.806;2023-04-25T00:43:22;12.60;;;3.30;;
16579;SDS011;8402;51.466;6.806;2023-04-25T00:45:52;10.90;;;3.73;;
16579;SDS011;8402;51.466;6.806;2023-04-25T00:48:24;11.23;;;4.00;;
16579;SDS011;8402;51.466;6.806;2023-04-25T00:50:57;10.83;;;3.40;;
16579;SDS011;8402;51.466;6.806;2023-04-25T00:53:28;13.70;;;4.10;;
16579;SDS011;8402;51.466;6.806;2023-04-25T00:55:58;18.00;;;3.33;;
16579;SDS011;8402;51.466;6.806;2023-04-25T00:58:28;12.17;;;3.37;;
16579;SDS011;8402;51.466;6.806;2023-04-25T01:00:58;10.33;;;3.60;;
16579;SDS011;8402;51.466;6.806;2023-04-25T01:03:29;10.30;;;3.13;;
16579;SDS011;8402;51.466;6.806;2023-04-25T01:06:05;17.83;;;4.40;;
16579;SDS011;8402;51.466;6.806;2023-04-25T01:08:37;12.43;;;3.47;;
16579;SDS011;8402;51.466;6.806;2023-04-25T01:11:08;8.37;;;3.77;;
16579;SDS011;8402;51.466;6.806;2023-04-25T01:13:38;9.60;;;3.50;;
16579;SDS011;8402;51.466;6.806;2023-04-25T01:16:08;11.40;;;4.00;;
16579;SDS011;8402;51.466;6.806;2023-04-25T01:18:38;8.90;;;3.47;;
16579;SDS011;8402;51.466;6.806;2023-04-25T01:21:12;10.43;;;4.33;;
16579;SDS011;8402;51.466;6.806;2023-04-25T01:23:42;8.53;;;3.77;;
16579;SDS011;8402;51.466;6.806;2023-04-25T01:26:12;13.33;;;4.50;;
16579;SDS011;8402;51.466;6.806;2023-04-25T01:28:42;14.50;;;4.33;;
16579;SDS011;8402;51.466;6.806;2023-04-25T01:31:13;13.77;;;4.27;;
16579;SDS011;8402;51.466;6.806;2023-04-25T01:33:45;13.47;;;3.60;;
16579;SDS011;8402;51.466;6.806;2023-04-25T01:36:19;9.33;;;3.83;;
16579;SDS011;8402;51.466;6.806;2023-04-25T01:38:50;9.07;;;3.30;;
16579;SDS011;8402;51.466;6.806;2023-04-25T01:41:20;13.77;;;4.00;;
16579;SDS011;8402;51.466;6.806;2023-04-25T01:43:50;11.37;;;3.07;;
16579;SDS011;8402;51.466;6.806;2023-04-25T01:46:20;13.97;;;3.77;;
16579;SDS011;8402;51.466;6.806;2023-04-25T01:48:50;8.87;;;3.30;;
16579;SDS011;8402;51.466;6.806;2023-04-25T01:51:23;16.43;;;4.80;;
16579;SDS011;8402;51.466;6.806;2023-04-25T01:53:53;10.43;;;3.67;;
16579;SDS011;8402;51.466;6.806;2023-04-25T01:56:29;12.00;;;3.63;;
16579;SDS011;8402;51.466;6.806;2023-04-25T01:59:00;14.10;;;3.73;;
16579;SDS011;8402;51.466;6.806;2023-04-25T02:01:30;10.67;;;3.10;;
16579;SDS011;8402;51.466;6.806;2023-04-25T02:04:00;7.70;;;3.60;;
16579;SDS011;8402;51.466;6.806;2023-04-25T02:06:33;13.77;;;3.93;;
16579;SDS011;8402;51.466;6.806;2023-04-25T02:09:03;19.17;;;3.93;;
16579;SDS011;8402;51.466;6.806;2023-04-25T02:11:32;10.23;;;3.47;;
16579;SDS011;8402;51.466;6.806;2023-04-25T02:14:02;9.50;;;3.30;;
16579;SDS011;8402;51.466;6.806;2023-04-25T02:16:32;14.47;;;4.23;;
16579;SDS011;8402;51.466;6.806;2023-04-25T02:19:02;10.50;;;3.33;;
16579;SDS011;8402;51.466;6.806;2023-04-25T02:21:35;9.20;;;3.60;;
16579;SDS011;8402;51.466;6.806;2023-04-25T02:24:06;15.27;;;3.90;;
16579;SDS011;8402;51.466;6.806;2023-04-25T02:26:37;8.90;;;3.57;;
16579;SDS011;8402;51.466;6.806;2023-04-25T02:29:07;16.70;;;4.20;;
16579;SDS011;8402;51.466;6.806;2023-04-25T02:31:36;9.80;;;3.70;;
16579;SDS011;8402;51.466;6.806;2023-04-25T02:34:07;11.00;;;4.00;;
16579;SDS011;8402;51.466;6.806;2023-04-25T02:36:39;8.83;;;3.63;;
16579;SDS011;8402;51.466;6.806;2023-04-25T02:39:09;7.77;;;3.57;;
16579;SDS011;8402;51.466;6.806;2023-04-25T02:41:39;13.70;;;3.97;;
16579;SDS011;8402;51.466;6.806;2023-04-25T02:44:09;10.27;;;3.27;;
16579;SDS011;8402;51.466;6.806;2023-04-25T02:46:39;13.60;;;3.90;;
16579;SDS011;8402;51.466;6.806;2023-04-25T02:49:09;9.90;;;3.53;;
16579;SDS011;8402;51.466;6.806;2023-04-25T02:51:42;18.07;;;4.00;;
16579;SDS011;8402;51.466;6.806;2023-04-25T02:54:12;11.90;;;3.50;;
16579;SDS011;8402;51.466;6.806;2023-04-25T02:56:42;11.07;;;4.47;;
16579;SDS011;8402;51.466;6.806;2023-04-25T02:59:12;8.77;;;3.50;;
16579;SDS011;8402;51.466;6.806;2023-04-25T03:01:42;11.57;;;3.73;;
16579;SDS011;8402;51.466;6.806;2023-04-25T03:04:11;11.60;;;3.13;;
16579;SDS011;8402;51.466;6.806;2023-04-25T03:06:44;9.03;;;3.40;;
16579;SDS011;8402;51.466;6.806;2023-04-25T03:09:14;9.60;;;3.23;;
16579;SDS011;8402;51.466;6.806;2023-04-25T03:11:44;12.73;;;3.97;;
16579;SDS011;8402;51.466;6.806;2023-04-25T03:14:15;12.10;;;3.80;;
16579;SDS011;8402;51.466;6.806;2023-04-25T03:16:44;13.57;;;3.67;;
16579;SDS011;8402;51.466;6.806;2023-04-25T03:19:14;13.83;;;3.67;;
16579;SDS011;8402;51.466;6.806;2023-04-25T03:21:47;11.00;;;4.13;;
16579;SDS011;8402;51.466;6.806;2023-04-25T03:24:17;6.30;;;2.37;;
16579;SDS011;8402;51.466;6.806;2023-04-25T03:26:47;12.10;;;3.43;;
16579;SDS011;8402;51.466;6.806;2023-04-25T03:29:18;17.23;;;4.20;;
16579;SDS011;8402;51.466;6.806;2023-04-25T03:31:50;12.13;;;3.73;;
16579;SDS011;8402;51.466;6.806;2023-04-25T03:34:21;15.27;;;3.97;;
16579;SDS011;8402;51.466;6.806;2023-04-25T03:36:53;10.07;;;3.30;;
16579;SDS011;8402;51.466;6.806;2023-04-25T03:39:23;11.10;;;4.00;;
16579;SDS011;8402;51.466;6.806;2023-04-25T03:41:53;10.03;;;3.57;;
16579;SDS011;8402;51.466;6.806;2023-04-25T03:44:23;19.07;;;3.80;;
16579;SDS011;8402;51.466;6.806;2023-04-25T03:46:54;11.60;;;3.73;;
16579;SDS011;8402;51.466;6.806;2023-04-25T03:49:24;15.93;;;4.07;;
16579;SDS011;8402;51.466;6.806;2023-04-25T03:51:56;13.30;;;3.17;;
16579;SDS011;8402;51.466;6.806;2023-04-25T03:54:27;9.83;;;3.27;;
16579;SDS011;8402;51.466;6.806;2023-04-25T03:56:57;13.07;;;3.93;;
16579;SDS011;8402;51.466;6.806;2023-04-25T03:59:26;10.20;;;3.53;;
16579;SDS011;8402;51.466;6.806;2023-04-25T04:01:57;12.77;;;4.37;;
16579;SDS011;8402;51.466;6.806;2023-04-25T04:04:28;14.50;;;3.90;;
16579;SDS011;8402;51.466;6.806;2023-04-25T04:07:01;11.63;;;3.93;;
16579;SDS011;8402;51.466;6.806;2023-04-25T04:09:32;10.23;;;4.33;;
16579;SDS011;8402;51.466;6.806;2023-04-25T04:12:05;14.17;;;4.30;;
16579;SDS011;8402;51.466;6.806;2023-04-25T04:14:35;14.40;;;4.27;;
16579;SDS011;8402;51.466;6.806;2023-04-25T04:17:05;17.77;;;3.97;;
16579;SDS011;8402;51.466;6.806;2023-04-25T04:19:35;13.77;;;4.30;;
16579;SDS011;8402;51.466;6.806;2023-04-25T04:22:08;17.37;;;3.97;;
16579;SDS011;8402;51.466;6.806;2023-04-25T04:24:38;9.33;;;3.73;;
16579;SDS011;8402;51.466;6.806;2023-04-25T04:27:10;15.93;;;4.37;;
16579;SDS011;8402;51.466;6.806;2023-04-25T04:29:40;12.23;;;3.37;;
16579;SDS011;8402;51.466;6.806;2023-04-25T04:32:10;12.30;;;3.83;;
16579;SDS011;8402;51.466;6.806;2023-04-25T04:34:40;19.07;;;4.13;;
16579;SDS011;8402;51.466;6.806;2023-04-25T04:37:17;12.07;;;4.23;;
16579;SDS011;8402;51.466;6.806;2023-04-25T04:39:47;15.00;;;3.63;;
16579;SDS011;8402;51.466;6.806;2023-04-25T04:42:18;21.00;;;4.27;;
16579;SDS011;8402;51.466;6.806;2023-04-25T04:44:48;10.90;;;3.50;;
16579;SDS011;8402;51.466;6.806;2023-04-25T04:47:18;13.27;;;3.90;;
16579;SDS011;8402;51.466;6.806;2023-04-25T04:49:52;13.47;;;3.97;;
16579;SDS011;8402;51.466;6.806;2023-04-25T04:52:25;17.70;;;3.80;;
16579;SDS011;8402;51.466;6.806;2023-04-25T04:54:58;16.33;;;3.60;;
16579;SDS011;8402;51.466;6.806;2023-04-25T04:57:27;13.47;;;3.97;;
16579;SDS011;8402;51.466;6.806;2023-04-25T04:59:59;12.40;;;4.00;;
16579;SDS011;8402;51.466;6.806;2023-04-25T05:02:30;12.23;;;3.37;;
16579;SDS011;8402;51.466;6.806;2023-04-25T05:05:00;19.87;;;4.57;;
16579;SDS011;8402;51.466;6.806;2023-04-25T05:07:33;16.00;;;4.27;;
16579;SDS011;8402;51.466;6.806;2023-04-25T05:10:04;18.00;;;3.80;;
16579;SDS011;8402;51.466;6.806;2023-04-25T05:12:36;17.87;;;4.43;;
16579;SDS011;8402;51.466;6.806;2023-04-25T05:15:06;20.00;;;5.30;;
16579;SDS011;8402;51.466;6.806;2023-04-25T05:17:37;19.07;;;5.17;;
16579;SDS011;8402;51.466;6.806;2023-04-25T05:20:08;12.80;;;4.43;;
16579;SDS011;8402;51.466;6.806;2023-04-25T05:22:43;17.53;;;4.57;;
16579;SDS011;8402;51.466;6.806;2023-04-25T05:25:13;17.50;;;4.07;;
16579;SDS011;8402;51.466;6.806;2023-04-25T05:27:43;14.37;;;4.10;;
16579;SDS011;8402;51.466;6.806;2023-04-25T05:30:13;18.60;;;4.07;;
16579;SDS011;8402;51.466;6.806;2023-04-25T05:32:43;17.00;;;4.27;;
16579;SDS011;8402;51.466;6.806;2023-04-25T05:35:13;13.73;;;3.97;;
16579;SDS011;8402;51.466;6.806;2023-04-25T05:37:46;26.30;;;5.27;;
16579;SDS011;8402;51.466;6.806;2023-04-25T05:40:16;13.77;;;4.57;;
16579;SDS011;8402;51.466;6.806;2023-04-25T05:42:47;15.23;;;4.37;;
16579;SDS011;8402;51.466;6.806;2023-04-25T05:45:17;18.83;;;4.80;;
16579;SDS011;8402;51.466;6.806;2023-04-25T05:47:47;10.37;;;4.67;;
16579;SDS011;8402;51.466;6.806;2023-04-25T05:50:17;18.93;;;5.40;;
16579;SDS011;8402;51.466;6.806;2023-04-25T05:52:50;24.30;;;5.90;;
16579;SDS011;8402;51.466;6.806;2023-04-25T05:55:20;19.20;;;6.00;;
16579;SDS011;8402;51.466;6.806;2023-04-25T05:57:50;23.03;;;6.20;;
16579;SDS011;8402;51.466;6.806;2023-04-25T06:00:20;18.60;;;6.07;;
16579;SDS011;8402;51.466;6.806;2023-04-25T06:02:50;23.60;;;6.00;;
16579;SDS011;8402;51.466;6.806;2023-04-25T06:05:20;23.07;;;7.03;;
16579;SDS011;8402;51.466;6.806;2023-04-25T06:07:53;14.37;;;5.43;;
16579;SDS011;8402;51.466;6.806;2023-04-25T06:10:23;18.50;;;6.27;;
16579;SDS011;8402;51.466;6.806;2023-04-25T06:12:53;19.40;;;4.87;;
16579;SDS011;8402;51.466;6.806;2023-04-25T06:15:23;14.17;;;4.50;;
16579;SDS011;8402;51.466;6.806;2023-04-25T06:17:54;14.67;;;3.90;;
16579;SDS011;8402;51.466;6.806;2023-04-25T06:20:25;17.60;;;3.67;;
16579;SDS011;8402;51.466;6.806;2023-04-25T06:22:57;17.70;;;4.77;;
16579;SDS011;8402;51.466;6.806;2023-04-25T06:25:30;16.27;;;3.80;;
16579;SDS011;8402;51.466;6.806;2023-04-25T06:28:00;11.73;;;3.47;;
16579;SDS011;8402;51.466;6.806;2023-04-25T06:30:30;21.50;;;3.20;;
16579;SDS011;8402;51.466;6.806;2023-04-25T06:33:00;14.57;;;3.10;;
16579;SDS011;8402;51.466;6.806;2023-04-25T06:35:30;13.90;;;3.30;;
16579;SDS011;8402;51.466;6.806;2023-04-25T06:38:03;10.03;;;2.93;;
16579;SDS011;8402;51.466;6.806;2023-04-25T06:40:33;13.87;;;2.77;;
16579;SDS011;8402;51.466;6.806;2023-04-25T06:43:02;15.27;;;3.17;;
16579;SDS011;8402;51.466;6.806;2023-04-25T06:45:34;13.57;;;3.10;;
16579;SDS011;8402;51.466;6.806;2023-04-25T06:48:04;16.37;;;4.50;;
16579;SDS011;8402;51.466;6.806;2023-04-25T06:50:35;8.77;;;3.07;;
16579;SDS011;8402;51.466;6.806;2023-04-25T06:53:07;11.90;;;3.40;;
16579;SDS011;8402;51.466;6.806;2023-04-25T06:55:38;9.60;;;2.63;;
16579;SDS011;8402;51.466;6.806;2023-04-25T06:58:08;10.63;;;3.27;;
16579;SDS011;8402;51.466;6.806;2023-04-25T07:00:37;10.17;;;2.97;;
16579;SDS011;8402;51.466;6.806;2023-04-25T07:03:07;11.97;;;3.10;;
16579;SDS011;8402;51.466;6.806;2023-04-25T07:05:38;11.57;;;3.20;;
16579;SDS011;8402;51.466;6.806;2023-04-25T07:08:11;8.20;;;3.23;;
16579;SDS011;8402;51.466;6.806;2023-04-25T07:10:41;11.07;;;3.20;;
16579;SDS011;8402;51.466;6.806;2023-04-25T07:13:15;11.13;;;3.33;;
16579;SDS011;8402;51.466;6.806;2023-04-25T07:15:45;9.20;;;3.93;;
16579;SDS011;8402;51.466;6.806;2023-04-25T07:18:15;11.40;;;3.73;;
16579;SDS011;8402;51.466;6.806;2023-04-25T07:20:45;12.40;;;3.50;;
16579;SDS011;8402;51.466;6.806;2023-04-25T07:23:18;10.87;;;3.23;;
16579;SDS011;8402;51.466;6.806;2023-04-25T07:25:48;12.50;;;3.43;;
16579;SDS011;8402;51.466;6.806;2023-04-25T07:28:18;14.87;;;3.27;;
16579;SDS011;8402;51.466;6.806;2023-04-25T07:30:48;13.87;;;3.33;;
16579;SDS011;8402;51.466;6.806;2023-04-25T07:33:18;8.57;;;2.93;;
16579;SDS011;8402;51.466;6.806;2023-04-25T07:35:49;12.53;;;3.50;;
16579;SDS011;8402;51.466;6.806;2023-04-25T07:38:22;11.00;;;3.60;;
16579;SDS011;8402;51.466;6.806;2023-04-25T07:40:52;9.60;;;3.43;;
16579;SDS011;8402;51.466;6.806;2023-04-25T07:43:22;12.63;;;3.60;;
16579;SDS011;8402;51.466;6.806;2023-04-25T07:45:52;16.47;;;3.77;;
16579;SDS011;8402;51.466;6.806;2023-04-25T07:48:23;13.17;;;2.90;;
16579;SDS011;8402;51.466;6.806;2023-04-25T07:50:53;13.43;;;3.53;;
16579;SDS011;8402;51.466;6.806;2023-04-25T07:53:26;10.07;;;2.90;;
16579;SDS011;8402;51.466;6.806;2023-04-25T07:55:59;17.37;;;3.17;;
16579;SDS011;8402;51.466;6.806;2023-04-25T07:58:33;12.27;;;3.40;;
16579;SDS011;8402;51.466;6.806;2023-04-25T08:01:05;7.43;;;3.20;;
16579;SDS011;8402;51.466;6.806;2023-04-25T08:03:35;9.63;;;3.23;;
16579;SDS011;8402;51.466;6.806;2023-04-25T08:06:05;8.67;;;3.50;;
16579;SDS011;8402;51.466;6.806;2023-04-25T08:08:38;13.00;;;2.73;;
16579;SDS011;8402;51.466;6.806;2023-04-25T08:11:08;13.60;;;3.07;;
16579;SDS011;8402;51.466;6.806;2023-04-25T08:13:39;11.00;;;2.63;;
16579;SDS011;8402;51.466;6.806;2023-04-25T08:16:08;7.63;;;2.10;;
16579;SDS011;8402;51.466;6.806;2023-04-25T08:18:39;10.47;;;2.07;;
16579;SDS011;8402;51.466;6.806;2023-04-25T08:21:09;8.07;;;2.27;;
16579;SDS011;8402;51.466;6.806;2023-04-25T08:23:43;6.77;;;2.60;;
16579;SDS011;8402;51.466;6.806;2023-04-25T08:26:12;17.33;;;2.93;;
16579;SDS011;8402;51.466;6.806;2023-04-25T08:28:45;7.03;;;2.37;;
16579;SDS011;8402;51.466;6.806;2023-04-25T08:31:16;7.67;;;2.30;;
16579;SDS011;8402;51.466;6.806;2023-04-25T08:33:46;17.77;;;2.77;;
16579;SDS011;8402;51.466;6.806;2023-04-25T08:36:18;11.73;;;2.60;;
16579;SDS011;8402;51.466;6.806;2023-04-25T08:39:06;9.10;;;2.07;;
16579;SDS011;8402;51.466;6.806;2023-04-25T08:41:36;9.30;;;2.30;;
16579;SDS011;8402;51.466;6.806;2023-04-25T08:44:07;10.40;;;1.97;;
16579;SDS011;8402;51.466;6.806;2023-04-25T08:46:40;13.53;;;2.10;;
16579;SDS011;8402;51.466;6.806;2023-04-25T08:49:12;9.60;;;1.70;;
16579;SDS011;8402;51.466;6.806;2023-04-25T08:51:43;12.77;;;2.57;;
16579;SDS011;8402;51.466;6.806;2023-04-25T08:54:19;8.03;;;1.53;;
16579;SDS011;8402;51.466;6.806;2023-04-25T08:57:02;7.93;;;1.90;;
16579;SDS011;8402;51.466;6.806;2023-04-25T08:59:33;7.00;;;1.70;;
16579;SDS011;8402;51.466;6.806;2023-04-25T09:02:04;7.53;;;1.90;;
16579;SDS011;8402;51.466;6.806;2023-04-25T09:04:35;7.93;;;2.30;;
16579;SDS011;8402;51.466;6.806;2023-04-25T09:07:06;10.27;;;2.13;;
16579;SDS011;8402;51.466;6.806;2023-04-25T09:09:38;9.37;;;2.30;;
16579;SDS011;8402;51.466;6.806;2023-04-25T09:12:08;9.23;;;2.00;;
16579;SDS011;8402;51.466;6.806;2023-04-25T09:14:39;8.23;;;1.70;;
16579;SDS011;8402;51.466;6.806;2023-04-25T09:17:10;6.57;;;1.93;;
16579;SDS011;8402;51.466;6.806;2023-04-25T09:19:40;8.37;;;1.90;;
16579;SDS011;8402;51.466;6.806;2023-04-25T09:22:12;5.70;;;1.70;;
16579;SDS011;8402;51.466;6.806;2023-04-25T09:24:45;8.30;;;1.50;;
16579;SDS011;8402;51.466;6.806;2023-04-25T09:27:18;7.03;;;1.70;;
16579;SDS011;8402;51.466;6.806;2023-04-25T09:29:49;7.13;;;1.80;;
16579;SDS011;8402;51.466;6.806;2023-04-25T09:32:26;12.37;;;2.20;;
16579;SDS011;8402;51.466;6.806;2023-04-25T09:34:57;11.10;;;2.13;;
16579;SDS011;8402;51.466;6.806;2023-04-25T09:37:28;7.43;;;1.90;;
16579;SDS011;8402;51.466;6.806;2023-04-25T09:40:04;8.73;;;1.63;;
16579;SDS011;8402;51.466;6.806;2023-04-25T09:42:40;8.13;;;1.43;;
16579;SDS011;8402;51.466;6.806;2023-04-25T09:45:12;3.80;;;1.70;;
16579;SDS011;8402;51.466;6.806;2023-04-25T09:47:42;5.97;;;1.50;;
16579;SDS011;8402;51.466;6.806;2023-04-25T09:50:16;9.03;;;1.53;;
16579;SDS011;8402;51.466;6.806;2023-04-25T09:53:02;5.73;;;1.50;;
16579;SDS011;8402;51.466;6.806;2023-04-25T09:55:36;7.70;;;1.67;;
16579;SDS011;8402;51.466;6.806;2023-04-25T09:58:07;11.13;;;1.53;;
16579;SDS011;8402;51.466;6.806;2023-04-25T10:00:42;3.27;;;1.60;;
16579;SDS011;8402;51.466;6.806;2023-04-25T10:03:12;6.27;;;1.40;;
16579;SDS011;8402;51.466;6.806;2023-04-25T10:05:45;6.00;;;1.60;;
16579;SDS011;8402;51.466;6.806;2023-04-25T10:08:19;3.77;;;1.33;;
16579;SDS011;8402;51.466;6.806;2023-04-25T10:10:52;4.97;;;1.47;;
16579;SDS011;8402;51.466;6.806;2023-04-25T10:13:22;4.93;;;1.70;;
16579;SDS011;8402;51.466;6.806;2023-04-25T10:15:53;8.83;;;1.47;;
16579;SDS011;8402;51.466;6.806;2023-04-25T10:18:24;3.10;;;1.20;;
16579;SDS011;8402;51.466;6.806;2023-04-25T10:20:55;4.73;;;1.37;;
16579;SDS011;8402;51.466;6.806;2023-04-25T10:23:27;6.17;;;1.40;;
16579;SDS011;8402;51.466;6.806;2023-04-25T10:26:04;4.87;;;1.30;;
16579;SDS011;8402;51.466;6.806;2023-04-25T10:28:54;4.87;;;1.57;;
16579;SDS011;8402;51.466;6.806;2023-04-25T10:31:27;4.47;;;1.50;;
16579;SDS011;8402;51.466;6.806;2023-04-25T10:33:59;5.60;;;1.70;;
16579;SDS011;8402;51.466;6.806;2023-04-25T10:36:31;7.00;;;1.60;;
16579;SDS011;8402;51.466;6.806;2023-04-25T10:39:08;8.43;;;1.50;;
16579;SDS011;8402;51.466;6.806;2023-04-25T10:44:29;7.93;;;1.30;;
16579;SDS011;8402;51.466;6.806;2023-04-25T10:47:00;7.80;;;0.90;;
16579;SDS011;8402;51.466;6.806;2023-04-25T10:49:32;6.57;;;1.17;;
16579;SDS011;8402;51.466;6.806;2023-04-25T10:52:17;3.43;;;1.23;;
16579;SDS011;8402;51.466;6.806;2023-04-25T10:54:55;5.93;;;1.20;;
16579;SDS011;8402;51.466;6.806;2023-04-25T10:57:36;7.43;;;1.57;;
16579;SDS011;8402;51.466;6.806;2023-04-25T11:00:08;4.03;;;1.10;;
16579;SDS011;8402;51.466;6.806;2023-04-25T11:02:42;2.77;;;1.10;;
16579;SDS011;8402;51.466;6.806;2023-04-25T11:05:23;3.53;;;1.37;;
16579;SDS011;8402;51.466;6.806;2023-04-25T11:08:12;8.13;;;1.80;;
16579;SDS011;8402;51.466;6.806;2023-04-25T11:10:47;7.40;;;1.40;;
16579;SDS011;8402;51.466;6.806;2023-04-25T11:13:21;4.37;;;1.60;;
16579;SDS011;8402;51.466;6.806;2023-04-25T11:15:51;3.53;;;1.07;;
16579;SDS011;8402;51.466;6.806;2023-04-25T11:18:40;6.23;;;1.27;;
16579;SDS011;8402;51.466;6.806;2023-04-25T11:21:11;3.57;;;1.20;;
16579;SDS011;8402;51.466;6.806;2023-04-25T11:23:42;4.70;;;0.93;;
16579;SDS011;8402;51.466;6.806;2023-04-25T11:26:14;9.83;;;1.70;;
16579;SDS011;8402;51.466;6.806;2023-04-25T11:28:48;4.40;;;1.30;;
16579;SDS011;8402;51.466;6.806;2023-04-25T11:31:29;5.93;;;1.30;;
16579;SDS011;8402;51.466;6.806;2023-04-25T11:33:59;3.40;;;1.30;;
16579;SDS011;8402;51.466;6.806;2023-04-25T11:36:29;6.00;;;1.50;;
16579;SDS011;8402;51.466;6.806;2023-04-25T11:39:00;4.07;;;1.40;;
16579;SDS011;8402;51.466;6.806;2023-04-25T11:41:31;5.33;;;1.50;;
16579;SDS011;8402;51.466;6.806;2023-04-25T11:44:04;6.43;;;2.40;;
16579;SDS011;8402;51.466;6.806;2023-04-25T11:46:35;9.87;;;1.97;;
16579;SDS011;8402;51.466;6.806;2023-04-25T11:49:04;4.57;;;1.67;;
16579;SDS011;8402;51.466;6.806;2023-04-25T11:51:37;6.20;;;1.63;;
16579;SDS011;8402;51.466;6.806;2023-04-25T11:54:09;5.20;;;1.90;;
16579;SDS011;8402;51.466;6.806;2023-04-25T11:56:40;8.07;;;1.83;;
16579;SDS011;8402;51.466;6.806;2023-04-25T11:59:13;4.43;;;1.63;;
16579;SDS011;8402;51.466;6.806;2023-04-25T12:01:47;5.57;;;1.33;;
16579;SDS011;8402;51.466;6.806;2023-04-25T12:04:20;7.00;;;1.53;;
16579;SDS011;8402;51.466;6.806;2023-04-25T12:06:52;3.40;;;1.47;;
16579;SDS011;8402;51.466;6.806;2023-04-25T12:09:28;6.60;;;1.70;;
16579;SDS011;8402;51.466;6.806;2023-04-25T12:11:59;6.97;;;2.20;;
16579;SDS011;8402;51.466;6.806;2023-04-25T12:14:35;6.53;;;1.80;;
16579;SDS011;8402;51.466;6.806;2023-04-25T12:17:05;5.03;;;1.60;;
16579;SDS011;8402;51.466;6.806;2023-04-25T12:19:37;4.07;;;1.63;;
16579;SDS011;8402;51.466;6.806;2023-04-25T12:22:19;4.47;;;1.50;;
16579;SDS011;8402;51.466;6.806;2023-04-25T12:24:50;3.70;;;1.50;;
16579;SDS011;8402;51.466;6.806;2023-04-25T12:27:20;5.00;;;2.00;;
16579;SDS011;8402;51.466;6.806;2023-04-25T12:29:54;3.33;;;1.40;;
16579;SDS011;8402;51.466;6.806;2023-04-25T12:32:25;5.17;;;1.70;;
16579;SDS011;8402;51.466;6.806;2023-04-25T12:34:56;5.60;;;1.73;;
16579;SDS011;8402;51.466;6.806;2023-04-25T12:37:26;7.77;;;2.40;;
16579;SDS011;8402;51.466;6.806;2023-04-25T12:39:58;4.20;;;1.30;;
16579;SDS011;8402;51.466;6.806;2023-04-25T12:42:27;3.53;;;1.43;;
16579;SDS011;8402;51.466;6.806;2023-04-25T12:45:00;5.70;;;1.60;;
16579;SDS011;8402;51.466;6.806;2023-04-25T12:47:30;4.63;;;1.30;;
16579;SDS011;8402;51.466;6.806;2023-04-25T12:50:01;8.40;;;1.80;;
16579;SDS011;8402;51.466;6.806;2023-04-25T12:52:31;6.60;;;1.63;;
16579;SDS011;8402;51.466;6.806;2023-04-25T12:55:01;5.40;;;1.93;;
16579;SDS011;8402;51.466;6.806;2023-04-25T12:57:32;3.73;;;1.47;;
16579;SDS011;8402;51.466;6.806;2023-04-25T13:00:07;4.20;;;1.30;;
16579;SDS011;8402;51.466;6.806;2023-04-25T13:02:41;3.70;;;1.10;;
16579;SDS011;8402;51.466;6.806;2023-04-25T13:05:11;5.23;;;1.13;;
16579;SDS011;8402;51.466;6.806;2023-04-25T13:07:41;3.93;;;1.00;;
16579;SDS011;8402;51.466;6.806;2023-04-25T13:10:11;5.23;;;1.27;;
16579;SDS011;8402;51.466;6.806;2023-04-25T13:12:42;5.70;;;1.27;;
16579;SDS011;8402;51.466;6.806;2023-04-25T13:15:15;12.30;;;1.30;;
16579;SDS011;8402;51.466;6.806;2023-04-25T13:17:45;3.93;;;1.43;;
16579;SDS011;8402;51.466;6.806;2023-04-25T13:20:16;3.00;;;1.00;;
16579;SDS011;8402;51.466;6.806;2023-04-25T13:22:49;5.63;;;1.13;;
16579;SDS011;8402;51.466;6.806;2023-04-25T13:25:19;2.10;;;0.97;;
16579;SDS011;8402;51.466;6.806;2023-04-25T13:27:49;1.67;;;0.90;;
16579;SDS011;8402;51.466;6.806;2023-04-25T13:30:21;3.27;;;1.10;;
16579;SDS011;8402;51.466;6.806;2023-04-25T13:32:51;2.97;;;1.20;;
16579;SDS011;8402;51.466;6.806;2023-04-25T13:35:22;2.00;;;0.90;;
16579;SDS011;8402;51.466;6.806;2023-04-25T13:37:52;5.43;;;1.20;;
16579;SDS011;8402;51.466;6.806;2023-04-25T13:40:22;7.70;;;1.60;;
16579;SDS011;8402;51.466;6.806;2023-04-25T13:42:53;5.43;;;1.23;;
16579;SDS011;8402;51.466;6.806;2023-04-25T13:45:27;3.23;;;0.70;;
16579;SDS011;8402;51.466;6.806;2023-04-25T13:47:59;5.93;;;1.30;;
16579;SDS011;8402;51.466;6.806;2023-04-25T13:50:29;6.50;;;1.40;;
16579;SDS011;8402;51.466;6.806;2023-04-25T13:52:59;3.23;;;1.00;;
16579;SDS011;8402;51.466;6.806;2023-04-25T13:55:29;8.13;;;1.23;;
16579;SDS011;8402;51.466;6.806;2023-04-25T13:57:59;3.30;;;1.00;;
16579;SDS011;8402;51.466;6.806;2023-04-25T14:00:38;5.50;;;1.23;;
16579;SDS011;8402;51.466;6.806;2023-04-25T14:03:09;7.00;;;1.23;;
16579;SDS011;8402;51.466;6.806;2023-04-25T14:05:39;10.70;;;1.30;;
16579;SDS011;8402;51.466;6.806;2023-04-25T14:08:10;4.07;;;1.00;;
16579;SDS011;8402;51.466;6.806;2023-04-25T14:10:39;4.70;;;1.10;;
16579;SDS011;8402;51.466;6.806;2023-04-25T14:13:09;4.13;;;1.27;;
16579;SDS011;8402;51.466;6.806;2023-04-25T14:15:42;2.20;;;1.00;;
16579;SDS011;8402;51.466;6.806;2023-04-25T14:18:12;4.77;;;1.07;;
16579;SDS011;8402;51.466;6.806;2023-04-25T14:20:42;3.77;;;1.13;;
16579;SDS011;8402;51.466;6.806;2023-04-25T14:23:12;3.90;;;1.17;;
16579;SDS011;8402;51.466;6.806;2023-04-25T14:25:44;3.77;;;1.10;;
16579;SDS011;8402;51.466;6.806;2023-04-25T14:28:14;1.90;;;0.90;;
16579;SDS011;8402;51.466;6.806;2023-04-25T14:30:50;3.80;;;1.00;;
16579;SDS011;8402;51.466;6.806;2023-04-25T14:33:19;3.03;;;0.97;;
16579;SDS011;8402;51.466;6.806;2023-04-25T14:35:50;5.53;;;1.27;;
16579;SDS011;8402;51.466;6.806;2023-04-25T14:38:20;5.57;;;1.00;;
16579;SDS011;8402;51.466;6.806;2023-04-25T14:40:52;2.63;;;1.10;;
16579;SDS011;8402;51.466;6.806;2023-04-25T14:43:22;4.37;;;1.10;;
16579;SDS011;8402;51.466;6.806;2023-04-25T14:45:55;3.53;;;1.13;;
16579;SDS011;8402;51.466;6.806;2023-04-25T14:48:24;6.70;;;1.30;;
16579;SDS011;8402;51.466;6.806;2023-04-25T14:50:55;5.23;;;1.30;;
16579;SDS011;8402;51.466;6.806;2023-04-25T14:53:26;6.23;;;2.97;;
16579;SDS011;8402;51.466;6.806;2023-04-25T14:55:57;9.93;;;1.17;;
16579;SDS011;8402;51.466;6.806;2023-04-25T14:58:27;3.33;;;1.13;;
16579;SDS011;8402;51.466;6.806;2023-04-25T15:01:00;3.97;;;1.13;;
16579;SDS011;8402;51.466;6.806;2023-04-25T15:03:30;4.23;;;1.03;;
16579;SDS011;8402;51.466;6.806;2023-04-25T15:06:01;3.47;;;1.10;;
16579;SDS011;8402;51.466;6.806;2023-04-25T15:08:30;3.33;;;0.90;;
16579;SDS011;8402;51.466;6.806;2023-04-25T15:11:01;4.00;;;1.00;;
16579;SDS011;8402;51.466;6.806;2023-04-25T15:13:34;5.80;;;1.00;;
16579;SDS011;8402;51.466;6.806;2023-04-25T15:16:09;5.87;;;1.57;;
16579;SDS011;8402;51.466;6.806;2023-04-25T15:18:39;4.90;;;1.20;;
16579;SDS011;8402;51.466;6.806;2023-04-25T15:21:09;8.63;;;1.20;;
16579;SDS011;8402;51.466;6.806;2023-04-25T15:23:39;3.60;;;0.93;;